sensor_id;sensor_type;location;lat;lon;timestamp;P1;durP1;ratioP1;P2;durP2;ratioP2
27558;SDS011;15002;52.028;5.670;2023-08-20T00:00:26;10.75;;;5.50;;
27558;SDS011;15002;52.028;5.670;2023-08-20T00:02:55;11.77;;;6.20;;
27558;SDS011;15002;52.028;5.670;2023-08-20T00:05:25;8.70;;;5.97;;
27558;SDS011;15002;52.028;5.670;2023-08-20T00:07:51;12.18;;;6.45;;
27558;SDS011;15002;52.028;5.670;2023-08-20T00:10:17;9.18;;;5.63;;
27558;SDS011;15002;52.028;5.670;2023-08-20T00:12:43;12.23;;;5.38;;
27558;SDS011;15002;52.028;5.670;2023-08-20T00:15:08;8.80;;;4.85;;
27558;SDS011;15002;52.028;5.670;2023-08-20T00:17:35;10.75;;;5.35;;
27558;SDS011;15002;52.028;5.670;2023-08-20T00:20:03;9.90;;;4.80;;
27558;SDS011;15002;52.028;5.670;2023-08-20T00:22:35;10.77;;;5.10;;
27558;SDS011;15002;52.028;5.670;2023-08-20T00:25:02;10.27;;;4.70;;
27558;SDS011;15002;52.028;5.670;2023-08-20T00:27:30;9.07;;;4.63;;
27558;SDS011;15002;52.028;5.670;2023-08-20T00:29:56;10.15;;;4.18;;
27558;SDS011;15002;52.028;5.670;2023-08-20T00:32:21;11.95;;;4.25;;
27558;SDS011;15002;52.028;5.670;2023-08-20T00:34:48;6.85;;;3.53;;
27558;SDS011;15002;52.028;5.670;2023-08-20T00:37:14;8.20;;;3.83;;
27558;SDS011;15002;52.028;5.670;2023-08-20T00:39:39;9.35;;;3.65;;
27558;SDS011;15002;52.028;5.670;2023-08-20T00:42:05;8.25;;;3.45;;
27558;SDS011;15002;52.028;5.670;2023-08-20T00:44:32;12.98;;;3.53;;
27558;SDS011;15002;52.028;5.670;2023-08-20T00:46:58;6.82;;;3.63;;
27558;SDS011;15002;52.028;5.670;2023-08-20T00:49:25;8.32;;;3.55;;
27558;SDS011;15002;52.028;5.670;2023-08-20T00:51:51;6.25;;;3.20;;
27558;SDS011;15002;52.028;5.670;2023-08-20T00:54:18;8.52;;;3.60;;
27558;SDS011;15002;52.028;5.670;2023-08-20T00:56:45;7.72;;;4.03;;
27558;SDS011;15002;52.028;5.670;2023-08-20T00:59:12;9.30;;;3.42;;
27558;SDS011;15002;52.028;5.670;2023-08-20T01:01:38;10.70;;;3.53;;
27558;SDS011;15002;52.028;5.670;2023-08-20T01:04:04;5.82;;;3.53;;
27558;SDS011;15002;52.028;5.670;2023-08-20T01:06:42;6.22;;;3.50;;
27558;SDS011;15002;52.028;5.670;2023-08-20T01:09:14;8.25;;;3.42;;
27558;SDS011;15002;52.028;5.670;2023-08-20T01:12:02;9.07;;;3.55;;
27558;SDS011;15002;52.028;5.670;2023-08-20T01:14:28;9.60;;;3.58;;
27558;SDS011;15002;52.028;5.670;2023-08-20T01:16:54;7.47;;;3.30;;
27558;SDS011;15002;52.028;5.670;2023-08-20T01:19:20;7.65;;;3.40;;
27558;SDS011;15002;52.028;5.670;2023-08-20T01:29:55;8.80;;;3.60;;
27558;SDS011;15002;52.028;5.670;2023-08-20T01:32:22;8.38;;;3.20;;
27558;SDS011;15002;52.028;5.670;2023-08-20T01:34:48;6.90;;;3.58;;
27558;SDS011;15002;52.028;5.670;2023-08-20T01:37:14;6.20;;;3.78;;
27558;SDS011;15002;52.028;5.670;2023-08-20T01:39:41;9.38;;;3.08;;
27558;SDS011;15002;52.028;5.670;2023-08-20T01:42:06;5.38;;;3.13;;
27558;SDS011;15002;52.028;5.670;2023-08-20T01:44:32;15.10;;;3.85;;
27558;SDS011;15002;52.028;5.670;2023-08-20T01:46:58;6.93;;;3.60;;
27558;SDS011;15002;52.028;5.670;2023-08-20T01:49:24;6.22;;;3.10;;
27558;SDS011;15002;52.028;5.670;2023-08-20T01:51:49;8.10;;;3.47;;
27558;SDS011;15002;52.028;5.670;2023-08-20T01:54:15;7.13;;;3.63;;
27558;SDS011;15002;52.028;5.670;2023-08-20T01:56:40;8.57;;;3.63;;
27558;SDS011;15002;52.028;5.670;2023-08-20T01:59:06;10.90;;;4.15;;
27558;SDS011;15002;52.028;5.670;2023-08-20T02:01:31;10.75;;;3.38;;
27558;SDS011;15002;52.028;5.670;2023-08-20T02:03:57;11.65;;;3.90;;
27558;SDS011;15002;52.028;5.670;2023-08-20T02:06:23;6.47;;;3.03;;
27558;SDS011;15002;52.028;5.670;2023-08-20T02:08:48;9.40;;;3.65;;
27558;SDS011;15002;52.028;5.670;2023-08-20T02:11:14;7.80;;;3.33;;
27558;SDS011;15002;52.028;5.670;2023-08-20T02:13:39;5.78;;;3.70;;
27558;SDS011;15002;52.028;5.670;2023-08-20T02:16:05;6.82;;;3.33;;
27558;SDS011;15002;52.028;5.670;2023-08-20T02:18:31;7.97;;;3.05;;
27558;SDS011;15002;52.028;5.670;2023-08-20T02:20:57;10.15;;;3.72;;
27558;SDS011;15002;52.028;5.670;2023-08-20T02:23:23;7.38;;;3.75;;
27558;SDS011;15002;52.028;5.670;2023-08-20T02:25:49;6.25;;;3.35;;
27558;SDS011;15002;52.028;5.670;2023-08-20T02:28:15;7.15;;;3.47;;
27558;SDS011;15002;52.028;5.670;2023-08-20T02:30:44;10.85;;;4.38;;
27558;SDS011;15002;52.028;5.670;2023-08-20T02:33:10;7.57;;;3.85;;
27558;SDS011;15002;52.028;5.670;2023-08-20T02:35:36;7.70;;;4.35;;
27558;SDS011;15002;52.028;5.670;2023-08-20T02:38:03;11.32;;;4.22;;
27558;SDS011;15002;52.028;5.670;2023-08-20T02:40:29;9.07;;;4.13;;
27558;SDS011;15002;52.028;5.670;2023-08-20T02:42:54;8.27;;;4.03;;
27558;SDS011;15002;52.028;5.670;2023-08-20T02:45:20;8.88;;;4.40;;
27558;SDS011;15002;52.028;5.670;2023-08-20T02:47:46;7.35;;;3.97;;
27558;SDS011;15002;52.028;5.670;2023-08-20T02:50:11;7.35;;;3.92;;
27558;SDS011;15002;52.028;5.670;2023-08-20T02:52:37;10.25;;;4.72;;
27558;SDS011;15002;52.028;5.670;2023-08-20T02:55:03;11.50;;;4.82;;
27558;SDS011;15002;52.028;5.670;2023-08-20T02:57:30;7.97;;;4.47;;
27558;SDS011;15002;52.028;5.670;2023-08-20T02:59:56;12.95;;;5.05;;
27558;SDS011;15002;52.028;5.670;2023-08-20T03:02:21;9.45;;;4.93;;
27558;SDS011;15002;52.028;5.670;2023-08-20T03:04:47;9.73;;;5.75;;
27558;SDS011;15002;52.028;5.670;2023-08-20T03:07:13;10.57;;;5.20;;
27558;SDS011;15002;52.028;5.670;2023-08-20T03:09:38;10.50;;;5.40;;
27558;SDS011;15002;52.028;5.670;2023-08-20T03:12:04;8.85;;;5.20;;
27558;SDS011;15002;52.028;5.670;2023-08-20T03:14:30;14.65;;;5.38;;
27558;SDS011;15002;52.028;5.670;2023-08-20T03:16:56;9.68;;;4.93;;
27558;SDS011;15002;52.028;5.670;2023-08-20T03:19:21;9.50;;;5.68;;
27558;SDS011;15002;52.028;5.670;2023-08-20T03:21:47;10.18;;;5.93;;
27558;SDS011;15002;52.028;5.670;2023-08-20T03:24:12;9.13;;;5.25;;
27558;SDS011;15002;52.028;5.670;2023-08-20T03:26:38;9.30;;;5.50;;
27558;SDS011;15002;52.028;5.670;2023-08-20T03:29:04;15.05;;;6.20;;
27558;SDS011;15002;52.028;5.670;2023-08-20T03:31:29;11.35;;;5.72;;
27558;SDS011;15002;52.028;5.670;2023-08-20T03:33:55;9.10;;;5.53;;
27558;SDS011;15002;52.028;5.670;2023-08-20T03:36:21;11.98;;;6.57;;
27558;SDS011;15002;52.028;5.670;2023-08-20T03:38:46;10.77;;;6.68;;
27558;SDS011;15002;52.028;5.670;2023-08-20T03:41:12;10.00;;;6.78;;
27558;SDS011;15002;52.028;5.670;2023-08-20T03:43:37;9.77;;;6.50;;
27558;SDS011;15002;52.028;5.670;2023-08-20T03:46:03;12.45;;;7.22;;
27558;SDS011;15002;52.028;5.670;2023-08-20T03:48:29;12.27;;;7.00;;
27558;SDS011;15002;52.028;5.670;2023-08-20T03:50:55;10.75;;;6.93;;
27558;SDS011;15002;52.028;5.670;2023-08-20T03:53:21;13.48;;;7.53;;
27558;SDS011;15002;52.028;5.670;2023-08-20T03:55:49;10.45;;;6.65;;
27558;SDS011;15002;52.028;5.670;2023-08-20T03:58:16;14.02;;;6.63;;
27558;SDS011;15002;52.028;5.670;2023-08-20T04:00:42;12.60;;;7.07;;
27558;SDS011;15002;52.028;5.670;2023-08-20T04:03:08;19.08;;;8.15;;
27558;SDS011;15002;52.028;5.670;2023-08-20T04:05:37;17.60;;;7.35;;
27558;SDS011;15002;52.028;5.670;2023-08-20T04:08:04;13.20;;;7.75;;
27558;SDS011;15002;52.028;5.670;2023-08-20T04:10:30;14.70;;;7.60;;
27558;SDS011;15002;52.028;5.670;2023-08-20T04:12:56;11.32;;;6.97;;
27558;SDS011;15002;52.028;5.670;2023-08-20T04:15:22;15.98;;;7.40;;
27558;SDS011;15002;52.028;5.670;2023-08-20T04:17:47;12.13;;;7.25;;
27558;SDS011;15002;52.028;5.670;2023-08-20T04:20:14;13.60;;;7.35;;
27558;SDS011;15002;52.028;5.670;2023-08-20T04:22:40;13.82;;;6.97;;
27558;SDS011;15002;52.028;5.670;2023-08-20T04:25:07;13.07;;;6.72;;
27558;SDS011;15002;52.028;5.670;2023-08-20T04:27:33;12.98;;;7.43;;
27558;SDS011;15002;52.028;5.670;2023-08-20T04:29:59;14.68;;;7.25;;
27558;SDS011;15002;52.028;5.670;2023-08-20T04:32:24;14.85;;;7.63;;
27558;SDS011;15002;52.028;5.670;2023-08-20T04:34:50;14.10;;;7.75;;
27558;SDS011;15002;52.028;5.670;2023-08-20T04:37:18;11.90;;;7.15;;
27558;SDS011;15002;52.028;5.670;2023-08-20T04:39:44;14.65;;;8.50;;
27558;SDS011;15002;52.028;5.670;2023-08-20T04:42:10;12.38;;;7.82;;
27558;SDS011;15002;52.028;5.670;2023-08-20T04:44:35;11.35;;;6.70;;
27558;SDS011;15002;52.028;5.670;2023-08-20T04:47:01;11.48;;;8.15;;
27558;SDS011;15002;52.028;5.670;2023-08-20T04:49:27;15.43;;;8.25;;
27558;SDS011;15002;52.028;5.670;2023-08-20T04:51:54;13.48;;;8.45;;
27558;SDS011;15002;52.028;5.670;2023-08-20T04:54:20;13.77;;;7.45;;
27558;SDS011;15002;52.028;5.670;2023-08-20T04:56:45;10.52;;;7.80;;
27558;SDS011;15002;52.028;5.670;2023-08-20T04:59:11;11.82;;;7.40;;
27558;SDS011;15002;52.028;5.670;2023-08-20T05:01:37;12.75;;;7.05;;
27558;SDS011;15002;52.028;5.670;2023-08-20T05:04:04;11.85;;;7.05;;
27558;SDS011;15002;52.028;5.670;2023-08-20T05:06:30;12.27;;;7.10;;
27558;SDS011;15002;52.028;5.670;2023-08-20T05:08:55;13.98;;;7.63;;
27558;SDS011;15002;52.028;5.670;2023-08-20T05:11:21;13.80;;;7.15;;
27558;SDS011;15002;52.028;5.670;2023-08-20T05:13:47;13.68;;;6.28;;
27558;SDS011;15002;52.028;5.670;2023-08-20T05:16:14;17.77;;;7.35;;
27558;SDS011;15002;52.028;5.670;2023-08-20T05:18:40;13.38;;;7.72;;
27558;SDS011;15002;52.028;5.670;2023-08-20T05:21:05;13.95;;;7.28;;
27558;SDS011;15002;52.028;5.670;2023-08-20T05:23:31;12.52;;;6.65;;
27558;SDS011;15002;52.028;5.670;2023-08-20T05:25:57;11.93;;;6.80;;
27558;SDS011;15002;52.028;5.670;2023-08-20T05:28:22;11.50;;;7.32;;
27558;SDS011;15002;52.028;5.670;2023-08-20T05:30:57;13.68;;;7.47;;
27558;SDS011;15002;52.028;5.670;2023-08-20T05:33:23;10.80;;;7.60;;
27558;SDS011;15002;52.028;5.670;2023-08-20T05:35:49;13.70;;;7.32;;
27558;SDS011;15002;52.028;5.670;2023-08-20T05:38:15;10.07;;;7.22;;
27558;SDS011;15002;52.028;5.670;2023-08-20T05:40:41;10.68;;;7.32;;
27558;SDS011;15002;52.028;5.670;2023-08-20T05:43:07;8.20;;;6.93;;
27558;SDS011;15002;52.028;5.670;2023-08-20T05:45:33;11.55;;;8.13;;
27558;SDS011;15002;52.028;5.670;2023-08-20T05:47:58;13.73;;;7.88;;
27558;SDS011;15002;52.028;5.670;2023-08-20T05:50:24;13.73;;;7.20;;
27558;SDS011;15002;52.028;5.670;2023-08-20T05:52:49;13.32;;;7.30;;
27558;SDS011;15002;52.028;5.670;2023-08-20T05:55:15;11.82;;;7.40;;
27558;SDS011;15002;52.028;5.670;2023-08-20T05:57:41;14.48;;;7.60;;
27558;SDS011;15002;52.028;5.670;2023-08-20T06:00:08;12.23;;;7.40;;
27558;SDS011;15002;52.028;5.670;2023-08-20T06:02:35;13.98;;;7.65;;
27558;SDS011;15002;52.028;5.670;2023-08-20T06:05:01;13.18;;;8.52;;
27558;SDS011;15002;52.028;5.670;2023-08-20T06:07:29;13.95;;;7.72;;
27558;SDS011;15002;52.028;5.670;2023-08-20T06:09:57;11.95;;;7.35;;
27558;SDS011;15002;52.028;5.670;2023-08-20T06:12:23;11.93;;;7.25;;
27558;SDS011;15002;52.028;5.670;2023-08-20T06:14:49;10.45;;;6.95;;
27558;SDS011;15002;52.028;5.670;2023-08-20T06:17:14;12.32;;;6.97;;
27558;SDS011;15002;52.028;5.670;2023-08-20T06:19:40;14.73;;;7.82;;
27558;SDS011;15002;52.028;5.670;2023-08-20T06:22:06;11.50;;;6.75;;
27558;SDS011;15002;52.028;5.670;2023-08-20T06:24:32;12.57;;;6.85;;
27558;SDS011;15002;52.028;5.670;2023-08-20T06:26:58;14.98;;;7.32;;
27558;SDS011;15002;52.028;5.670;2023-08-20T06:29:23;14.10;;;7.57;;
27558;SDS011;15002;52.028;5.670;2023-08-20T06:31:49;14.73;;;7.30;;
27558;SDS011;15002;52.028;5.670;2023-08-20T06:34:15;13.43;;;6.93;;
27558;SDS011;15002;52.028;5.670;2023-08-20T06:36:41;14.25;;;6.95;;
27558;SDS011;15002;52.028;5.670;2023-08-20T06:39:07;12.95;;;6.43;;
27558;SDS011;15002;52.028;5.670;2023-08-20T06:41:33;15.60;;;5.70;;
27558;SDS011;15002;52.028;5.670;2023-08-20T06:43:59;10.65;;;5.10;;
27558;SDS011;15002;52.028;5.670;2023-08-20T06:46:25;10.98;;;4.70;;
27558;SDS011;15002;52.028;5.670;2023-08-20T06:48:50;12.25;;;4.60;;
27558;SDS011;15002;52.028;5.670;2023-08-20T06:51:18;11.45;;;4.72;;
27558;SDS011;15002;52.028;5.670;2023-08-20T06:53:45;12.15;;;4.18;;
27558;SDS011;15002;52.028;5.670;2023-08-20T06:56:10;10.95;;;4.60;;
27558;SDS011;15002;52.028;5.670;2023-08-20T06:58:37;8.45;;;4.10;;
27558;SDS011;15002;52.028;5.670;2023-08-20T07:01:04;11.93;;;4.70;;
27558;SDS011;15002;52.028;5.670;2023-08-20T07:03:42;6.60;;;4.15;;
27558;SDS011;15002;52.028;5.670;2023-08-20T07:06:09;6.45;;;3.85;;
27558;SDS011;15002;52.028;5.670;2023-08-20T07:08:35;9.48;;;3.30;;
27558;SDS011;15002;52.028;5.670;2023-08-20T07:11:03;9.50;;;2.88;;
27558;SDS011;15002;52.028;5.670;2023-08-20T07:13:29;7.35;;;2.85;;
27558;SDS011;15002;52.028;5.670;2023-08-20T07:15:55;10.95;;;3.75;;
27558;SDS011;15002;52.028;5.670;2023-08-20T07:18:20;8.93;;;3.30;;
27558;SDS011;15002;52.028;5.670;2023-08-20T07:20:46;4.88;;;2.75;;
27558;SDS011;15002;52.028;5.670;2023-08-20T07:23:12;8.57;;;2.97;;
27558;SDS011;15002;52.028;5.670;2023-08-20T07:25:38;6.57;;;2.53;;
27558;SDS011;15002;52.028;5.670;2023-08-20T07:28:05;5.88;;;2.42;;
27558;SDS011;15002;52.028;5.670;2023-08-20T07:30:32;6.25;;;2.17;;
27558;SDS011;15002;52.028;5.670;2023-08-20T07:32:57;8.13;;;2.80;;
27558;SDS011;15002;52.028;5.670;2023-08-20T07:35:23;8.13;;;3.10;;
27558;SDS011;15002;52.028;5.670;2023-08-20T07:37:49;9.43;;;3.40;;
27558;SDS011;15002;52.028;5.670;2023-08-20T07:40:15;5.93;;;2.75;;
27558;SDS011;15002;52.028;5.670;2023-08-20T07:42:41;6.80;;;2.42;;
27558;SDS011;15002;52.028;5.670;2023-08-20T07:45:07;8.23;;;3.10;;
27558;SDS011;15002;52.028;5.670;2023-08-20T07:47:35;7.70;;;2.50;;
27558;SDS011;15002;52.028;5.670;2023-08-20T07:50:01;7.15;;;2.10;;
27558;SDS011;15002;52.028;5.670;2023-08-20T07:52:27;7.82;;;2.60;;
27558;SDS011;15002;52.028;5.670;2023-08-20T07:54:53;6.13;;;2.35;;
27558;SDS011;15002;52.028;5.670;2023-08-20T07:57:18;6.20;;;2.13;;
27558;SDS011;15002;52.028;5.670;2023-08-20T07:59:44;8.18;;;2.10;;
27558;SDS011;15002;52.028;5.670;2023-08-20T08:02:10;9.15;;;2.05;;
27558;SDS011;15002;52.028;5.670;2023-08-20T08:04:35;5.80;;;2.03;;
27558;SDS011;15002;52.028;5.670;2023-08-20T08:07:01;4.88;;;1.55;;
27558;SDS011;15002;52.028;5.670;2023-08-20T08:09:28;7.35;;;2.00;;
27558;SDS011;15002;52.028;5.670;2023-08-20T08:11:55;5.03;;;1.38;;
27558;SDS011;15002;52.028;5.670;2023-08-20T08:14:21;8.63;;;1.80;;
27558;SDS011;15002;52.028;5.670;2023-08-20T08:16:47;4.93;;;1.55;;
27558;SDS011;15002;52.028;5.670;2023-08-20T08:19:13;6.88;;;1.60;;
27558;SDS011;15002;52.028;5.670;2023-08-20T08:21:39;6.00;;;1.48;;
27558;SDS011;15002;52.028;5.670;2023-08-20T08:24:04;6.28;;;1.33;;
27558;SDS011;15002;52.028;5.670;2023-08-20T08:26:30;3.10;;;1.20;;
27558;SDS011;15002;52.028;5.670;2023-08-20T08:28:58;2.17;;;1.17;;
27558;SDS011;15002;52.028;5.670;2023-08-20T08:31:23;5.25;;;1.45;;
27558;SDS011;15002;52.028;5.670;2023-08-20T08:33:49;6.78;;;2.20;;
27558;SDS011;15002;52.028;5.670;2023-08-20T08:36:14;5.50;;;1.40;;
27558;SDS011;15002;52.028;5.670;2023-08-20T08:38:42;5.00;;;1.65;;
27558;SDS011;15002;52.028;5.670;2023-08-20T08:41:10;3.00;;;1.20;;
27558;SDS011;15002;52.028;5.670;2023-08-20T08:43:40;5.95;;;1.17;;
27558;SDS011;15002;52.028;5.670;2023-08-20T08:46:06;3.33;;;1.00;;
27558;SDS011;15002;52.028;5.670;2023-08-20T08:48:42;3.03;;;1.13;;
27558;SDS011;15002;52.028;5.670;2023-08-20T08:51:09;5.23;;;1.13;;
27558;SDS011;15002;52.028;5.670;2023-08-20T08:53:35;4.43;;;1.15;;
27558;SDS011;15002;52.028;5.670;2023-08-20T08:56:01;5.03;;;1.13;;
27558;SDS011;15002;52.028;5.670;2023-08-20T08:58:28;4.35;;;1.00;;
27558;SDS011;15002;52.028;5.670;2023-08-20T09:00:54;4.05;;;0.98;;
27558;SDS011;15002;52.028;5.670;2023-08-20T09:03:20;5.97;;;0.85;;
27558;SDS011;15002;52.028;5.670;2023-08-20T09:05:49;3.78;;;1.00;;
27558;SDS011;15002;52.028;5.670;2023-08-20T09:08:27;3.38;;;0.88;;
27558;SDS011;15002;52.028;5.670;2023-08-20T09:10:54;2.92;;;0.75;;
27558;SDS011;15002;52.028;5.670;2023-08-20T09:13:24;4.28;;;1.10;;
27558;SDS011;15002;52.028;5.670;2023-08-20T09:18:18;3.70;;;0.98;;
27558;SDS011;15002;52.028;5.670;2023-08-20T09:20:43;4.97;;;1.02;;
27558;SDS011;15002;52.028;5.670;2023-08-20T09:23:10;3.92;;;0.90;;
27558;SDS011;15002;52.028;5.670;2023-08-20T09:25:37;3.30;;;0.90;;
27558;SDS011;15002;52.028;5.670;2023-08-20T09:28:03;2.13;;;0.73;;
27558;SDS011;15002;52.028;5.670;2023-08-20T09:30:29;4.38;;;0.90;;
27558;SDS011;15002;52.028;5.670;2023-08-20T09:35:31;2.95;;;0.80;;
27558;SDS011;15002;52.028;5.670;2023-08-20T09:38:01;2.35;;;0.73;;
27558;SDS011;15002;52.028;5.670;2023-08-20T09:42:54;5.00;;;1.00;;
27558;SDS011;15002;52.028;5.670;2023-08-20T09:45:20;3.03;;;1.17;;
27558;SDS011;15002;52.028;5.670;2023-08-20T09:47:50;5.32;;;0.88;;
27558;SDS011;15002;52.028;5.670;2023-08-20T09:50:21;2.78;;;0.70;;
27558;SDS011;15002;52.028;5.670;2023-08-20T09:52:54;1.80;;;0.60;;
27558;SDS011;15002;52.028;5.670;2023-08-20T09:55:21;2.35;;;0.70;;
27558;SDS011;15002;52.028;5.670;2023-08-20T09:57:47;2.92;;;0.80;;
27558;SDS011;15002;52.028;5.670;2023-08-20T10:00:13;1.10;;;0.60;;
27558;SDS011;15002;52.028;5.670;2023-08-20T10:02:40;4.28;;;1.20;;
27558;SDS011;15002;52.028;5.670;2023-08-20T10:05:07;3.15;;;0.80;;
27558;SDS011;15002;52.028;5.670;2023-08-20T10:07:34;2.95;;;0.73;;
27558;SDS011;15002;52.028;5.670;2023-08-20T10:10:02;3.00;;;0.52;;
27558;SDS011;15002;52.028;5.670;2023-08-20T10:12:32;2.03;;;0.43;;
27558;SDS011;15002;52.028;5.670;2023-08-20T10:14:59;2.08;;;0.60;;
27558;SDS011;15002;52.028;5.670;2023-08-20T10:17:25;2.17;;;0.70;;
27558;SDS011;15002;52.028;5.670;2023-08-20T10:19:55;3.05;;;0.60;;
27558;SDS011;15002;52.028;5.670;2023-08-20T10:22:25;2.85;;;0.65;;
27558;SDS011;15002;52.028;5.670;2023-08-20T10:25:11;1.00;;;0.45;;
27558;SDS011;15002;52.028;5.670;2023-08-20T10:31:09;3.88;;;0.60;;
27558;SDS011;15002;52.028;5.670;2023-08-20T10:33:37;1.92;;;0.60;;
27558;SDS011;15002;52.028;5.670;2023-08-20T10:36:15;3.50;;;0.80;;
27558;SDS011;15002;52.028;5.670;2023-08-20T10:38:44;4.55;;;0.65;;
27558;SDS011;15002;52.028;5.670;2023-08-20T10:41:10;2.83;;;0.90;;
27558;SDS011;15002;52.028;5.670;2023-08-20T10:43:38;2.92;;;1.00;;
27558;SDS011;15002;52.028;5.670;2023-08-20T10:46:05;3.40;;;0.65;;
27558;SDS011;15002;52.028;5.670;2023-08-20T10:51:17;2.78;;;0.68;;
27558;SDS011;15002;52.028;5.670;2023-08-20T10:56:25;5.65;;;1.02;;
27558;SDS011;15002;52.028;5.670;2023-08-20T10:59:05;1.98;;;0.60;;
27558;SDS011;15002;52.028;5.670;2023-08-20T11:03:58;2.33;;;0.60;;
27558;SDS011;15002;52.028;5.670;2023-08-20T11:06:32;3.90;;;0.90;;
27558;SDS011;15002;52.028;5.670;2023-08-20T11:08:59;3.30;;;0.90;;
27558;SDS011;15002;52.028;5.670;2023-08-20T11:11:25;4.63;;;1.00;;
27558;SDS011;15002;52.028;5.670;2023-08-20T11:13:50;5.25;;;0.90;;
27558;SDS011;15002;52.028;5.670;2023-08-20T11:16:16;6.68;;;0.90;;
27558;SDS011;15002;52.028;5.670;2023-08-20T11:18:42;3.15;;;0.70;;
27558;SDS011;15002;52.028;5.670;2023-08-20T11:21:08;4.78;;;0.60;;
27558;SDS011;15002;52.028;5.670;2023-08-20T11:23:34;4.82;;;0.80;;
27558;SDS011;15002;52.028;5.670;2023-08-20T11:26:00;3.05;;;1.05;;
27558;SDS011;15002;52.028;5.670;2023-08-20T11:28:27;3.58;;;0.90;;
27558;SDS011;15002;52.028;5.670;2023-08-20T11:30:53;6.03;;;1.63;;
27558;SDS011;15002;52.028;5.670;2023-08-20T11:33:21;2.40;;;0.52;;
27558;SDS011;15002;52.028;5.670;2023-08-20T11:35:47;4.20;;;0.65;;
27558;SDS011;15002;52.028;5.670;2023-08-20T11:38:13;4.25;;;0.80;;
27558;SDS011;15002;52.028;5.670;2023-08-20T11:40:39;2.22;;;0.60;;
27558;SDS011;15002;52.028;5.670;2023-08-20T11:43:05;2.83;;;0.68;;
27558;SDS011;15002;52.028;5.670;2023-08-20T11:45:31;1.70;;;0.80;;
27558;SDS011;15002;52.028;5.670;2023-08-20T11:47:57;2.40;;;0.80;;
27558;SDS011;15002;52.028;5.670;2023-08-20T11:50:23;2.90;;;0.55;;
27558;SDS011;15002;52.028;5.670;2023-08-20T11:52:49;4.25;;;1.15;;
27558;SDS011;15002;52.028;5.670;2023-08-20T11:55:22;4.28;;;0.95;;
27558;SDS011;15002;52.028;5.670;2023-08-20T11:57:51;6.25;;;0.80;;
27558;SDS011;15002;52.028;5.670;2023-08-20T12:00:27;2.45;;;0.73;;
27558;SDS011;15002;52.028;5.670;2023-08-20T12:02:54;3.85;;;0.88;;
27558;SDS011;15002;52.028;5.670;2023-08-20T12:05:21;2.70;;;0.90;;
27558;SDS011;15002;52.028;5.670;2023-08-20T12:10:21;2.53;;;0.50;;
27558;SDS011;15002;52.028;5.670;2023-08-20T12:12:47;2.47;;;0.50;;
27558;SDS011;15002;52.028;5.670;2023-08-20T12:15:13;3.08;;;0.95;;
27558;SDS011;15002;52.028;5.670;2023-08-20T12:17:39;2.92;;;0.70;;
27558;SDS011;15002;52.028;5.670;2023-08-20T12:20:05;2.80;;;0.57;;
27558;SDS011;15002;52.028;5.670;2023-08-20T12:22:38;3.38;;;0.73;;
27558;SDS011;15002;52.028;5.670;2023-08-20T12:25:04;2.92;;;0.70;;
27558;SDS011;15002;52.028;5.670;2023-08-20T12:27:31;2.20;;;0.95;;
27558;SDS011;15002;52.028;5.670;2023-08-20T12:29:58;5.45;;;0.88;;
27558;SDS011;15002;52.028;5.670;2023-08-20T12:32:24;2.50;;;0.52;;
27558;SDS011;15002;52.028;5.670;2023-08-20T12:34:49;2.72;;;0.70;;
27558;SDS011;15002;52.028;5.670;2023-08-20T12:37:15;2.33;;;0.52;;
27558;SDS011;15002;52.028;5.670;2023-08-20T12:39:48;5.05;;;0.93;;
27558;SDS011;15002;52.028;5.670;2023-08-20T12:42:14;4.90;;;0.85;;
27558;SDS011;15002;52.028;5.670;2023-08-20T12:44:39;3.03;;;0.80;;
27558;SDS011;15002;52.028;5.670;2023-08-20T12:47:05;2.05;;;0.60;;
27558;SDS011;15002;52.028;5.670;2023-08-20T12:49:31;2.05;;;0.63;;
27558;SDS011;15002;52.028;5.670;2023-08-20T12:51:56;2.92;;;0.68;;
27558;SDS011;15002;52.028;5.670;2023-08-20T12:54:22;4.68;;;0.90;;
27558;SDS011;15002;52.028;5.670;2023-08-20T12:56:47;2.30;;;0.75;;
27558;SDS011;15002;52.028;5.670;2023-08-20T12:59:13;3.03;;;1.10;;
27558;SDS011;15002;52.028;5.670;2023-08-20T13:01:39;2.97;;;0.90;;
27558;SDS011;15002;52.028;5.670;2023-08-20T13:04:04;2.85;;;0.77;;
27558;SDS011;15002;52.028;5.670;2023-08-20T13:06:30;2.80;;;0.70;;
27558;SDS011;15002;52.028;5.670;2023-08-20T13:08:56;3.35;;;0.70;;
27558;SDS011;15002;52.028;5.670;2023-08-20T13:11:22;3.83;;;0.70;;
27558;SDS011;15002;52.028;5.670;2023-08-20T13:13:50;4.85;;;0.73;;
27558;SDS011;15002;52.028;5.670;2023-08-20T13:16:18;16.00;;;1.40;;
27558;SDS011;15002;52.028;5.670;2023-08-20T13:18:44;3.05;;;0.80;;
27558;SDS011;15002;52.028;5.670;2023-08-20T13:21:10;6.20;;;1.08;;
27558;SDS011;15002;52.028;5.670;2023-08-20T13:23:36;3.22;;;0.98;;
27558;SDS011;15002;52.028;5.670;2023-08-20T13:26:02;4.15;;;0.70;;
27558;SDS011;15002;52.028;5.670;2023-08-20T13:28:28;2.78;;;0.70;;
27558;SDS011;15002;52.028;5.670;2023-08-20T13:30:54;2.63;;;0.80;;
27558;SDS011;15002;52.028;5.670;2023-08-20T13:33:19;3.80;;;0.80;;
27558;SDS011;15002;52.028;5.670;2023-08-20T13:35:45;4.90;;;1.02;;
27558;SDS011;15002;52.028;5.670;2023-08-20T13:38:11;3.40;;;0.80;;
27558;SDS011;15002;52.028;5.670;2023-08-20T13:40:36;2.95;;;0.82;;
27558;SDS011;15002;52.028;5.670;2023-08-20T13:43:02;3.13;;;0.90;;
27558;SDS011;15002;52.028;5.670;2023-08-20T13:45:28;3.72;;;1.10;;
27558;SDS011;15002;52.028;5.670;2023-08-20T13:47:54;3.50;;;0.65;;
27558;SDS011;15002;52.028;5.670;2023-08-20T13:50:19;3.25;;;0.82;;
27558;SDS011;15002;52.028;5.670;2023-08-20T13:52:45;3.95;;;0.80;;
27558;SDS011;15002;52.028;5.670;2023-08-20T13:55:11;2.78;;;0.88;;
27558;SDS011;15002;52.028;5.670;2023-08-20T13:57:37;9.23;;;0.75;;
27558;SDS011;15002;52.028;5.670;2023-08-20T14:00:03;3.83;;;1.10;;
27558;SDS011;15002;52.028;5.670;2023-08-20T14:02:34;5.35;;;1.15;;
27558;SDS011;15002;52.028;5.670;2023-08-20T14:05:00;4.25;;;0.93;;
27558;SDS011;15002;52.028;5.670;2023-08-20T14:07:26;3.55;;;0.80;;
27558;SDS011;15002;52.028;5.670;2023-08-20T14:09:52;2.60;;;0.90;;
27558;SDS011;15002;52.028;5.670;2023-08-20T14:12:18;3.95;;;1.20;;
27558;SDS011;15002;52.028;5.670;2023-08-20T14:14:46;4.22;;;0.90;;
27558;SDS011;15002;52.028;5.670;2023-08-20T14:17:12;4.75;;;1.10;;
27558;SDS011;15002;52.028;5.670;2023-08-20T14:19:37;2.75;;;0.88;;
27558;SDS011;15002;52.028;5.670;2023-08-20T14:22:03;3.05;;;1.20;;
27558;SDS011;15002;52.028;5.670;2023-08-20T14:24:28;3.65;;;1.08;;
27558;SDS011;15002;52.028;5.670;2023-08-20T14:26:54;4.78;;;1.00;;
27558;SDS011;15002;52.028;5.670;2023-08-20T14:29:20;3.85;;;0.82;;
27558;SDS011;15002;52.028;5.670;2023-08-20T14:31:45;1.80;;;0.70;;
27558;SDS011;15002;52.028;5.670;2023-08-20T14:34:11;2.35;;;1.05;;
27558;SDS011;15002;52.028;5.670;2023-08-20T14:36:36;3.65;;;1.25;;
27558;SDS011;15002;52.028;5.670;2023-08-20T14:39:02;6.85;;;1.20;;
27558;SDS011;15002;52.028;5.670;2023-08-20T14:41:30;5.10;;;1.23;;
27558;SDS011;15002;52.028;5.670;2023-08-20T14:43:56;4.88;;;1.30;;
27558;SDS011;15002;52.028;5.670;2023-08-20T14:46:21;2.38;;;1.52;;
27558;SDS011;15002;52.028;5.670;2023-08-20T14:48:47;4.43;;;1.10;;
27558;SDS011;15002;52.028;5.670;2023-08-20T14:51:13;5.13;;;1.50;;
27558;SDS011;15002;52.028;5.670;2023-08-20T14:53:38;3.13;;;1.00;;
27558;SDS011;15002;52.028;5.670;2023-08-20T14:56:04;4.68;;;1.58;;
27558;SDS011;15002;52.028;5.670;2023-08-20T14:58:29;3.35;;;1.20;;
27558;SDS011;15002;52.028;5.670;2023-08-20T15:00:55;5.03;;;1.27;;
27558;SDS011;15002;52.028;5.670;2023-08-20T15:03:21;4.47;;;0.90;;
27558;SDS011;15002;52.028;5.670;2023-08-20T15:05:46;2.92;;;1.40;;
27558;SDS011;15002;52.028;5.670;2023-08-20T15:08:13;5.75;;;1.25;;